createdAt,value
2017-04-22T00:00:55.215Z,7.98
2017-04-22T00:01:55.516Z,7.96
2017-04-22T00:02:55.500Z,7.93
2017-04-22T00:03:55.494Z,7.92
2017-04-22T00:04:55.597Z,7.92
2017-04-22T00:05:54.835Z,7.92
2017-04-22T00:06:55.458Z,7.93
2017-04-22T00:07:55.476Z,7.93
2017-04-22T00:08:55.438Z,7.95
2017-04-22T00:09:55.424Z,8.01
2017-04-22T00:10:55.411Z,7.95
2017-04-22T00:11:55.399Z,7.95
2017-04-22T00:12:55.434Z,7.96
2017-04-22T00:13:55.070Z,7.99
2017-04-22T00:14:55.374Z,7.95
2017-04-22T00:15:55.358Z,8.03
2017-04-22T00:16:55.343Z,8.04
2017-04-22T00:17:55.023Z,7.96
2017-04-22T00:18:55.010Z,7.92
2017-04-22T00:19:54.999Z,7.91
2017-04-22T00:20:55.299Z,7.91
2017-04-22T00:21:55.295Z,7.92
2017-04-22T00:22:55.281Z,7.96
2017-04-22T00:23:55.270Z,7.92
2017-04-22T00:24:55.255Z,7.96
2017-04-22T00:25:55.252Z,7.95
2017-04-22T00:26:54.919Z,7.91
2017-04-22T00:27:55.221Z,7.88
2017-04-22T00:28:55.214Z,7.95
2017-04-22T00:29:55.207Z,7.95
2017-04-22T00:30:55.186Z,7.89
2017-04-22T00:31:55.176Z,7.96
2017-04-22T00:32:55.172Z,7.89
2017-04-22T00:33:54.846Z,7.93
2017-04-22T00:34:55.143Z,7.96
2017-04-22T00:35:55.132Z,7.98
2017-04-22T00:36:55.122Z,7.89
2017-04-22T00:37:54.832Z,7.88
2017-04-22T00:38:55.098Z,7.83
2017-04-22T00:39:55.090Z,7.85
2017-04-22T00:40:54.761Z,7.92
2017-04-22T00:41:55.065Z,7.89
2017-04-22T00:42:55.059Z,7.82
2017-04-22T00:43:55.047Z,7.82
2017-04-22T00:44:55.043Z,7.85
2017-04-22T00:45:55.193Z,7.8
2017-04-22T00:46:55.010Z,7.83
2017-04-22T00:47:55.003Z,7.73
2017-04-22T00:48:54.989Z,7.63
2017-04-22T00:49:54.989Z,7.7
2017-04-22T00:50:54.649Z,7.61
2017-04-22T00:51:54.954Z,7.59
2017-04-22T00:52:54.941Z,7.59
2017-04-22T00:53:54.932Z,7.58
2017-04-22T00:54:54.920Z,7.58
2017-04-22T00:55:54.596Z,7.56
2017-04-22T00:56:54.895Z,7.48
2017-04-22T00:57:54.571Z,7.54
2017-04-22T00:58:54.562Z,7.41
2017-04-22T00:59:54.864Z,7.44
2017-04-22T01:00:54.862Z,7.44
2017-04-22T01:01:54.841Z,7.37
2017-04-22T01:02:54.827Z,7.4
2017-04-22T01:03:54.818Z,7.37
2017-04-22T01:04:54.806Z,7.29
2017-04-22T01:05:54.168Z,7.31
2017-04-22T01:06:54.490Z,7.37
2017-04-22T01:07:54.783Z,7.26
2017-04-22T01:08:54.767Z,7.27
2017-04-22T01:09:54.439Z,7.22
2017-04-22T01:10:54.738Z,7.23
2017-04-22T01:11:54.096Z,7.26
2017-04-22T01:12:54.714Z,7.26
2017-04-22T01:13:54.703Z,7.22
2017-04-22T01:14:54.688Z,7.23
2017-04-22T01:15:54.681Z,7.23
2017-04-22T01:16:54.355Z,7.29
2017-04-22T01:17:54.659Z,7.22
2017-04-22T01:18:54.340Z,7.21
2017-04-22T01:19:54.579Z,7.21
2017-04-22T01:20:54.618Z,7.18
2017-04-22T01:21:54.606Z,7.21
2017-04-22T01:22:54.596Z,7.21
2017-04-22T01:23:54.588Z,7.23
2017-04-22T01:24:54.578Z,7.23
2017-04-22T01:25:54.249Z,7.21
2017-04-22T01:26:54.550Z,7.27
2017-04-22T01:27:54.334Z,7.16
2017-04-22T01:28:54.566Z,7.16
2017-04-22T01:29:54.205Z,7.22
2017-04-22T01:30:54.407Z,7.21
2017-04-22T01:31:54.493Z,7.21
2017-04-22T01:32:54.485Z,7.23
2017-04-22T01:33:54.474Z,7.19
2017-04-22T01:34:54.143Z,7.23
2017-04-22T01:35:54.129Z,7.16
2017-04-22T01:36:54.124Z,7.19
2017-04-22T01:37:54.424Z,7.16
2017-04-22T01:38:54.410Z,7.16
2017-04-22T01:39:54.400Z,7.16
2017-04-22T01:40:54.099Z,7.15
2017-04-22T01:41:54.378Z,7.12
2017-04-22T01:42:54.368Z,7.15
2017-04-22T01:43:54.351Z,7.11
2017-04-22T01:44:54.031Z,7.15
2017-04-22T01:45:54.331Z,7.08
2017-04-22T01:46:54.316Z,7.01
2017-04-22T01:47:54.311Z,7.11
2017-04-22T01:48:53.976Z,7.15
2017-04-22T01:49:53.968Z,7.13
2017-04-22T01:50:54.273Z,7.03
2017-04-22T01:51:54.261Z,7.05
2017-04-22T01:52:54.249Z,7.21
2017-04-22T01:53:54.242Z,7.13
2017-04-22T01:54:53.912Z,7.13
2017-04-22T01:55:54.217Z,7.09
2017-04-22T01:56:53.900Z,7.12
2017-04-22T01:57:54.196Z,7.03
2017-04-22T01:58:54.186Z,7.19
2017-04-22T01:59:54.171Z,7.08
2017-04-22T02:00:54.223Z,7.04
2017-04-22T02:01:53.518Z,7.13
2017-04-22T02:02:54.138Z,7.18
2017-04-22T02:03:53.811Z,7.13
2017-04-22T02:04:54.111Z,7.09
2017-04-22T02:05:54.105Z,7.12
2017-04-22T02:06:54.087Z,7.08
2017-04-22T02:07:54.078Z,7.05
2017-04-22T02:08:54.067Z,7.18
2017-04-22T02:09:53.768Z,7.16
2017-04-22T02:10:53.728Z,7.18
2017-04-22T02:11:54.031Z,7.18
2017-04-22T02:12:54.028Z,7.08
2017-04-22T02:13:54.005Z,7.13
2017-04-22T02:14:53.994Z,7.12
2017-04-22T02:15:53.987Z,7.15
2017-04-22T02:16:53.978Z,7.16
2017-04-22T02:17:53.650Z,7.15
2017-04-22T02:18:53.635Z,7.21
2017-04-22T02:19:53.949Z,7.12
2017-04-22T02:20:53.928Z,7.11
2017-04-22T02:21:53.915Z,7.12
2017-04-22T02:22:53.584Z,7.04
2017-04-22T02:23:53.897Z,7.16
2017-04-22T02:24:53.880Z,7.08
2017-04-22T02:25:53.866Z,7.01
2017-04-22T02:26:53.547Z,7.13
2017-04-22T02:27:53.849Z,7.13
2017-04-22T02:28:53.833Z,7.12
2017-04-22T02:29:53.823Z,7.03
2017-04-22T02:30:53.814Z,7.18
2017-04-22T02:31:53.801Z,7.12
2017-04-22T02:32:53.791Z,7.04
2017-04-22T02:33:53.777Z,7.12
2017-04-22T02:34:53.638Z,7.12
2017-04-22T02:35:53.751Z,7.21
2017-04-22T02:36:53.426Z,7.16
2017-04-22T02:37:53.732Z,7.08
2017-04-22T02:38:53.713Z,7.13
2017-04-22T02:39:53.389Z,7.12
2017-04-22T02:40:53.385Z,7.13
2017-04-22T02:41:53.698Z,7.16
2017-04-22T02:42:53.672Z,7.12
2017-04-22T02:43:53.661Z,7.15
2017-04-22T02:44:53.653Z,7.15
2017-04-22T02:45:53.640Z,7.15
2017-04-22T02:46:53.630Z,7.19
2017-04-22T02:47:53.610Z,7.16
2017-04-22T02:48:53.602Z,7.21
2017-04-22T02:49:53.589Z,7.19
2017-04-22T02:50:53.573Z,7.18
2017-04-22T02:51:53.252Z,7.26
2017-04-22T02:52:53.557Z,7.21
2017-04-22T02:53:53.542Z,7.18
2017-04-22T02:54:53.532Z,7.21
2017-04-22T02:55:53.523Z,7.19
2017-04-22T02:56:53.510Z,7.26
2017-04-22T02:57:53.499Z,7.21
2017-04-22T02:58:53.176Z,7.22
2017-04-22T02:59:53.159Z,7.15
2017-04-22T03:00:53.462Z,7.16
2017-04-22T03:01:53.454Z,7.22
2017-04-22T03:02:53.440Z,7.21
2017-04-22T03:03:53.112Z,7.23
2017-04-22T03:04:53.425Z,7.22
2017-04-22T03:05:53.092Z,7.16
2017-04-22T03:06:53.389Z,7.19
2017-04-22T03:07:53.389Z,7.21
2017-04-22T03:08:53.369Z,7.26
2017-04-22T03:09:53.354Z,7.26
2017-04-22T03:10:53.346Z,7.11
2017-04-22T03:11:53.332Z,7.22
2017-04-22T03:12:53.007Z,7.21
2017-04-22T03:13:53.316Z,7.22
2017-04-22T03:14:53.301Z,7.11
2017-04-22T03:15:53.303Z,7.21
2017-04-22T03:16:53.273Z,7.13
2017-04-22T03:17:53.263Z,7.12
2017-04-22T03:18:53.254Z,7.12
2017-04-22T03:19:53.241Z,7.22
2017-04-22T03:20:53.242Z,7.12
2017-04-22T03:21:53.220Z,7.16
2017-04-22T03:22:53.202Z,7.12
2017-04-22T03:23:53.197Z,7.12
2017-04-22T03:24:53.179Z,7.01
2017-04-22T03:25:53.173Z,7.13
2017-04-22T03:26:53.162Z,7.03
2017-04-22T03:27:52.837Z,7.13
2017-04-22T03:28:53.137Z,7.12
2017-04-22T03:29:53.122Z,7.15
2017-04-22T03:30:53.412Z,7.04
2017-04-22T03:31:53.099Z,7.09
2017-04-22T03:32:53.090Z,7.09
2017-04-22T03:33:53.074Z,7.08
2017-04-22T03:34:52.913Z,7.03
2017-04-22T03:35:53.053Z,7
2017-04-22T03:36:53.040Z,7
2017-04-22T03:37:53.028Z,7
2017-04-22T03:38:53.183Z,6.97
2017-04-22T03:39:53.007Z,6.95
2017-04-22T03:40:52.996Z,6.9
2017-04-22T03:41:52.984Z,6.85
2017-04-22T03:42:52.972Z,6.9
2017-04-22T03:43:52.986Z,7.01
2017-04-22T03:44:52.949Z,6.94
2017-04-22T03:45:52.618Z,6.86
2017-04-22T03:46:52.922Z,6.9
2017-04-22T03:47:53.082Z,6.86
2017-04-22T03:48:52.583Z,6.85
2017-04-22T03:49:52.890Z,6.88
2017-04-22T03:50:52.882Z,6.83
2017-04-22T03:51:52.238Z,6.9
2017-04-22T03:52:52.852Z,6.83
2017-04-22T03:53:52.839Z,6.85
2017-04-22T03:54:52.518Z,6.82
2017-04-22T03:55:52.816Z,6.88
2017-04-22T03:56:52.816Z,6.79
2017-04-22T03:57:52.475Z,6.88
2017-04-22T03:58:52.780Z,6.83
2017-04-22T03:59:52.452Z,6.78
2017-04-22T04:00:52.759Z,6.8
2017-04-22T04:01:52.866Z,6.82
2017-04-22T04:02:52.734Z,6.82
2017-04-22T04:03:52.720Z,6.82
2017-04-22T04:04:52.712Z,6.82
2017-04-22T04:05:52.380Z,6.78
2017-04-22T04:06:52.687Z,6.73
2017-04-22T04:07:52.359Z,6.76
2017-04-22T04:08:52.658Z,6.78
2017-04-22T04:09:52.654Z,6.86
2017-04-22T04:10:52.696Z,6.75
2017-04-22T04:11:52.627Z,6.76
2017-04-22T04:12:52.628Z,6.91
2017-04-22T04:13:52.605Z,6.86
2017-04-22T04:14:52.589Z,6.82
2017-04-22T04:15:52.270Z,6.86
2017-04-22T04:16:52.562Z,6.78
2017-04-22T04:17:52.552Z,6.76
2017-04-22T04:18:52.543Z,6.82
2017-04-22T04:19:52.541Z,6.88
2017-04-22T04:20:52.520Z,6.75
2017-04-22T04:21:52.504Z,6.75
2017-04-22T04:22:52.499Z,6.78
2017-04-22T04:23:52.484Z,6.78
2017-04-22T04:24:52.469Z,6.75
2017-04-22T04:25:52.458Z,6.79
2017-04-22T04:26:52.448Z,6.8
2017-04-22T04:27:52.489Z,6.79
2017-04-22T04:28:52.109Z,6.8
2017-04-22T04:29:52.409Z,6.73
2017-04-22T04:30:52.400Z,6.73
2017-04-22T04:31:52.387Z,6.8
2017-04-22T04:32:52.375Z,6.73
2017-04-22T04:33:52.362Z,6.7
2017-04-22T04:34:52.037Z,6.68
2017-04-22T04:35:52.337Z,6.78
2017-04-22T04:36:52.325Z,6.79
2017-04-22T04:37:52.312Z,6.65
2017-04-22T04:38:52.305Z,6.79
2017-04-22T04:39:52.293Z,6.73
2017-04-22T04:40:52.277Z,6.68
2017-04-22T04:41:51.953Z,6.65
2017-04-22T04:42:52.258Z,6.68
2017-04-22T04:43:52.250Z,6.67
2017-04-22T04:44:52.229Z,6.75
2017-04-22T04:45:52.218Z,6.7
2017-04-22T04:46:52.207Z,6.76
2017-04-22T04:47:52.196Z,6.72
2017-04-22T04:48:52.181Z,6.76
2017-04-22T04:49:52.176Z,6.67
2017-04-22T04:50:52.162Z,6.68
2017-04-22T04:51:52.147Z,6.73
2017-04-22T04:52:52.136Z,6.72
2017-04-22T04:53:52.124Z,6.73
2017-04-22T04:54:52.113Z,6.73
2017-04-22T04:55:52.103Z,6.72
2017-04-22T04:56:52.091Z,6.8
2017-04-22T04:57:52.073Z,6.73
2017-04-22T04:58:52.063Z,6.72
2017-04-22T04:59:52.046Z,6.7
2017-04-22T05:00:52.043Z,6.68
2017-04-22T05:01:52.028Z,6.73
2017-04-22T05:02:52.219Z,6.67
2017-04-22T05:03:52.006Z,6.68
2017-04-22T05:04:51.999Z,6.75
2017-04-22T05:05:51.976Z,6.76
2017-04-22T05:06:51.969Z,6.73
2017-04-22T05:07:51.959Z,6.8
2017-04-22T05:08:51.942Z,6.8
2017-04-22T05:09:51.929Z,6.78
2017-04-22T05:10:51.915Z,6.78
2017-04-22T05:11:51.912Z,6.73
2017-04-22T05:12:51.890Z,6.68
2017-04-22T05:13:51.883Z,6.7
2017-04-22T05:14:51.866Z,6.75
2017-04-22T05:15:51.859Z,6.72
2017-04-22T05:16:51.850Z,6.76
2017-04-22T05:17:51.836Z,6.79
2017-04-22T05:18:51.822Z,6.79
2017-04-22T05:19:51.494Z,6.75
2017-04-22T05:20:51.482Z,6.78
2017-04-22T05:21:51.782Z,6.79
2017-04-22T05:22:51.776Z,6.76
2017-04-22T05:23:51.765Z,6.79
2017-04-22T05:24:51.745Z,6.7
2017-04-22T05:25:51.741Z,6.85
2017-04-22T05:26:51.723Z,6.7
2017-04-22T05:27:51.721Z,6.8
2017-04-22T05:28:51.705Z,6.75
2017-04-22T05:29:51.688Z,6.79
2017-04-22T05:30:51.829Z,6.8
2017-04-22T05:31:51.658Z,6.82
2017-04-22T05:32:51.653Z,6.79
2017-04-22T05:33:51.325Z,6.86
2017-04-22T05:34:51.632Z,6.78
2017-04-22T05:35:51.638Z,6.75
2017-04-22T05:36:51.602Z,6.78
2017-04-22T05:37:51.277Z,6.76
2017-04-22T05:38:51.582Z,6.75
2017-04-22T05:39:51.256Z,6.72
2017-04-22T05:40:51.239Z,6.61
2017-04-22T05:41:51.612Z,6.67
2017-04-22T05:42:51.533Z,6.7
2017-04-22T05:43:51.524Z,6.62
2017-04-22T05:44:51.194Z,6.67
2017-04-22T05:45:51.494Z,6.67
2017-04-22T05:46:51.481Z,6.64
2017-04-22T05:47:51.475Z,6.67
2017-04-22T05:48:51.459Z,6.67
2017-04-22T05:49:51.470Z,6.64
2017-04-22T05:50:51.433Z,6.68
2017-04-22T05:51:51.441Z,6.67
2017-04-22T05:52:51.408Z,6.67
2017-04-22T05:53:51.398Z,6.67
2017-04-22T05:54:51.392Z,6.65
2017-04-22T05:55:51.371Z,6.65
2017-04-22T05:56:51.361Z,6.75
2017-04-22T05:57:51.352Z,6.7
2017-04-22T05:58:51.342Z,6.68
2017-04-22T05:59:51.326Z,6.72
2017-04-22T06:00:51.310Z,6.7
2017-04-22T06:01:51.300Z,6.67
2017-04-22T06:02:51.292Z,6.73
2017-04-22T06:03:51.350Z,6.73
2017-04-22T06:04:51.264Z,6.79
2017-04-22T06:05:50.938Z,6.67
2017-04-22T06:06:51.244Z,6.72
2017-04-22T06:07:51.244Z,6.68
2017-04-22T06:08:51.217Z,6.65
2017-04-22T06:09:50.892Z,6.65
2017-04-22T06:10:50.876Z,6.55
2017-04-22T06:11:51.177Z,6.37
2017-04-22T06:12:51.174Z,6.09
2017-04-22T06:13:51.157Z,6
2017-04-22T06:14:51.140Z,5.7
2017-04-22T06:15:51.132Z,5.48
2017-04-22T06:16:50.801Z,5.33
2017-04-22T06:17:51.237Z,5.18
2017-04-22T06:18:51.089Z,4.98
2017-04-22T06:19:51.074Z,4.74
2017-04-22T06:20:51.069Z,4.66
2017-04-22T06:21:51.051Z,4.4
2017-04-22T06:22:51.053Z,4.56
2017-04-22T06:23:51.027Z,4.51
2017-04-22T06:24:50.700Z,4.53
2017-04-22T06:25:50.996Z,4.47
2017-04-22T06:26:50.988Z,4.46
2017-04-22T06:27:51.128Z,4.47
2017-04-22T06:28:50.958Z,4.4
2017-04-22T06:29:50.946Z,4.4
2017-04-22T06:30:50.940Z,4.42
2017-04-22T06:31:50.912Z,4.3
2017-04-22T06:32:50.911Z,4.22
2017-04-22T06:33:50.893Z,4.28
2017-04-22T06:34:50.877Z,4.2
2017-04-22T06:35:50.861Z,4.22
2017-04-22T06:36:50.845Z,4.22
2017-04-22T06:37:50.834Z,4.28
2017-04-22T06:38:50.508Z,4.17
2017-04-22T06:39:50.806Z,4.12
2017-04-22T06:40:50.804Z,4.24
2017-04-22T06:41:50.787Z,4.26
2017-04-22T06:42:50.784Z,4.26
2017-04-22T06:43:50.752Z,4.22
2017-04-22T06:44:50.732Z,4.15
2017-04-22T06:45:50.740Z,4.17
2017-04-22T06:46:50.707Z,4.15
2017-04-22T06:47:50.696Z,4.17
2017-04-22T06:48:50.683Z,4.24
2017-04-22T06:49:50.359Z,4.11
2017-04-22T06:50:50.650Z,4.14
2017-04-22T06:51:50.636Z,4.15
2017-04-22T06:52:50.632Z,4.18
2017-04-22T06:53:50.614Z,4.07
2017-04-22T06:54:50.595Z,3.97
2017-04-22T06:55:50.273Z,3.94
2017-04-22T06:56:50.562Z,3.96
2017-04-22T06:57:50.551Z,3.92
2017-04-22T06:58:50.540Z,4.02
2017-04-22T06:59:50.524Z,3.99
2017-04-22T07:00:50.511Z,3.96
2017-04-22T07:01:50.176Z,4.1
2017-04-22T07:02:49.852Z,4.11
2017-04-22T07:03:50.475Z,4.07
2017-04-22T07:04:50.452Z,4.12
2017-04-22T07:05:50.436Z,4.15
2017-04-22T07:06:50.111Z,4.17
2017-04-22T07:07:50.118Z,4.2
2017-04-22T07:08:50.404Z,4.15
2017-04-22T07:09:50.381Z,4.14
2017-04-22T07:10:50.366Z,4.22
2017-04-22T07:11:50.039Z,4.15
2017-04-22T07:12:50.338Z,4.11
2017-04-22T07:13:50.325Z,4.15
2017-04-22T07:14:50.310Z,4.24
2017-04-22T07:15:50.295Z,4.18
2017-04-22T07:16:50.277Z,4.26
2017-04-22T07:17:50.267Z,4.35
2017-04-22T07:18:50.257Z,4.32
2017-04-22T07:19:50.239Z,4.3
2017-04-22T07:20:50.226Z,4.35
2017-04-22T07:21:50.204Z,4.39
2017-04-22T07:22:49.886Z,4.39
2017-04-22T07:23:50.182Z,4.33
2017-04-22T07:24:50.168Z,4.38
2017-04-22T07:25:50.154Z,4.35
2017-04-22T07:26:49.821Z,4.42
2017-04-22T07:27:50.124Z,4.33
2017-04-22T07:28:50.109Z,4.32
2017-04-22T07:29:49.782Z,4.39
2017-04-22T07:30:50.084Z,4.33
2017-04-22T07:31:50.072Z,4.42
2017-04-22T07:32:50.211Z,4.47
2017-04-22T07:33:49.729Z,4.58
2017-04-22T07:34:50.031Z,4.53
2017-04-22T07:35:50.011Z,4.56
2017-04-22T07:36:49.995Z,4.58
2017-04-22T07:37:49.985Z,4.51
2017-04-22T07:38:49.971Z,4.47
2017-04-22T07:39:49.687Z,4.51
2017-04-22T07:40:49.945Z,4.47
2017-04-22T07:41:49.932Z,4.51
2017-04-22T07:42:49.915Z,4.44
2017-04-22T07:43:49.904Z,4.42
2017-04-22T07:44:49.890Z,4.44
2017-04-22T07:45:49.559Z,4.46
2017-04-22T07:46:49.856Z,4.38
2017-04-22T07:47:49.847Z,4.32
2017-04-22T07:48:49.834Z,4.38
2017-04-22T07:49:49.824Z,4.3
2017-04-22T07:50:49.803Z,4.32
2017-04-22T07:51:49.790Z,4.35
2017-04-22T07:52:49.774Z,4.35
2017-04-22T07:53:49.445Z,4.17
2017-04-22T07:54:49.746Z,4.24
2017-04-22T07:55:49.420Z,4.29
2017-04-22T07:56:49.404Z,4.29
2017-04-22T07:57:49.706Z,4.39
2017-04-22T07:58:49.690Z,4.42
2017-04-22T07:59:49.680Z,4.36
2017-04-22T08:00:49.365Z,4.48
2017-04-22T08:01:49.334Z,4.4
2017-04-22T08:02:49.634Z,4.48
2017-04-22T08:03:49.619Z,4.46
2017-04-22T08:04:49.608Z,4.42
2017-04-22T08:05:49.596Z,4.44
2017-04-22T08:06:48.951Z,4.46
2017-04-22T08:07:49.250Z,4.46
2017-04-22T08:08:49.553Z,4.36
2017-04-22T08:09:49.538Z,4.36
2017-04-22T08:10:49.521Z,4.32
2017-04-22T08:11:49.516Z,4.35
2017-04-22T08:12:49.493Z,4.42
2017-04-22T08:13:49.480Z,4.4
2017-04-22T08:14:49.465Z,4.4
2017-04-22T08:15:49.454Z,4.42
2017-04-22T08:16:49.437Z,4.36
2017-04-22T08:17:49.111Z,4.35
2017-04-22T08:18:49.412Z,4.33
2017-04-22T08:19:49.397Z,4.39
2017-04-22T08:20:49.380Z,4.42
2017-04-22T08:21:49.417Z,4.42
2017-04-22T08:22:49.358Z,4.42
2017-04-22T08:23:49.341Z,4.39
2017-04-22T08:24:49.328Z,4.33
2017-04-22T08:25:49.316Z,4.36
2017-04-22T08:26:49.299Z,4.39
2017-04-22T08:27:49.285Z,4.38
2017-04-22T08:28:49.271Z,4.32
2017-04-22T08:29:48.940Z,4.39
2017-04-22T08:30:49.238Z,4.33
2017-04-22T08:31:49.233Z,4.32
2017-04-22T08:32:49.215Z,4.42
2017-04-22T08:33:48.887Z,4.42
2017-04-22T08:34:48.868Z,4.42
2017-04-22T08:35:49.170Z,4.38
2017-04-22T08:36:49.157Z,4.3
2017-04-22T08:37:49.144Z,4.36
2017-04-22T08:38:49.130Z,4.3
2017-04-22T08:39:49.111Z,4.24
2017-04-22T08:40:49.103Z,4.26
2017-04-22T08:41:49.088Z,4.3
2017-04-22T08:42:49.078Z,4.32
2017-04-22T08:43:48.746Z,4.36
2017-04-22T08:44:49.046Z,4.42
2017-04-22T08:45:49.028Z,4.48
2017-04-22T08:46:56.628Z,4.53
2017-04-22T08:47:49.003Z,4.46
2017-04-22T08:48:48.672Z,4.64
2017-04-22T08:49:48.977Z,4.64
2017-04-22T08:50:48.646Z,4.61
2017-04-22T08:51:48.952Z,4.64
2017-04-22T08:52:48.617Z,4.72
2017-04-22T08:53:48.927Z,4.71
2017-04-22T08:54:48.903Z,4.75
2017-04-22T08:55:48.575Z,4.75
2017-04-22T08:56:48.564Z,4.76
2017-04-22T08:57:48.865Z,4.76
2017-04-22T08:58:48.850Z,4.74
2017-04-22T08:59:48.833Z,4.78
2017-04-22T09:00:48.823Z,4.66
2017-04-22T09:01:48.807Z,4.66
2017-04-22T09:02:48.483Z,4.61
2017-04-22T09:03:48.778Z,4.64
2017-04-22T09:04:48.769Z,4.64
2017-04-22T09:05:48.752Z,4.54
2017-04-22T09:06:48.740Z,4.51
2017-04-22T09:07:48.411Z,4.58
2017-04-22T09:08:48.711Z,4.53
2017-04-22T09:09:48.694Z,4.5
2017-04-22T09:10:48.681Z,4.6
2017-04-22T09:11:48.671Z,4.57
2017-04-22T09:12:48.661Z,4.75
2017-04-22T09:13:48.643Z,4.76
2017-04-22T09:14:48.629Z,4.68
2017-04-22T09:15:48.611Z,4.68
2017-04-22T09:16:48.600Z,4.68
2017-04-22T09:17:48.591Z,4.48
2017-04-22T09:18:48.255Z,4.57
2017-04-22T09:19:48.563Z,4.42
2017-04-22T09:20:48.547Z,4.29
2017-04-22T09:21:48.531Z,4.18
2017-04-22T09:22:48.201Z,4.18
2017-04-22T09:23:48.511Z,4.04
2017-04-22T09:24:48.173Z,3.94
2017-04-22T09:25:48.478Z,3.99
2017-04-22T09:26:48.463Z,3.99
2017-04-22T09:27:48.140Z,3.96
2017-04-22T09:28:48.435Z,3.92
2017-04-22T09:29:48.108Z,3.94
2017-04-22T09:30:48.410Z,3.97
2017-04-22T09:31:48.393Z,4.11
2017-04-22T09:32:48.377Z,4.21
2017-04-22T09:33:48.364Z,4.17
2017-04-22T09:34:48.349Z,4.11
2017-04-22T09:35:48.331Z,4.1
2017-04-22T09:36:48.317Z,4.17
2017-04-22T09:37:48.304Z,4.2
2017-04-22T09:38:47.980Z,4.18
2017-04-22T09:39:48.278Z,4.17
2017-04-22T09:40:47.950Z,4.21
2017-04-22T09:41:47.934Z,4.24
2017-04-22T09:42:48.237Z,4.24
2017-04-22T09:43:48.223Z,4.24
2017-04-22T09:44:48.205Z,4.18
2017-04-22T09:45:48.195Z,4.24
2017-04-22T09:46:48.196Z,4.32
2017-04-22T09:47:48.167Z,4.17
2017-04-22T09:48:47.843Z,4.15
2017-04-22T09:49:47.822Z,4.18
2017-04-22T09:50:48.358Z,4.21
2017-04-22T09:51:47.792Z,4.1
2017-04-22T09:52:48.101Z,4.04
2017-04-22T09:53:48.085Z,3.97
2017-04-22T09:54:48.065Z,3.84
2017-04-22T09:55:48.057Z,3.81
2017-04-22T09:56:48.037Z,3.94
2017-04-22T09:57:48.021Z,3.94
2017-04-22T09:58:48.011Z,3.89
2017-04-22T09:59:47.994Z,3.89
2017-04-22T10:00:47.665Z,3.99
2017-04-22T10:01:47.652Z,4
2017-04-22T10:02:47.637Z,4.12
2017-04-22T10:03:47.621Z,4.15
2017-04-22T10:04:47.924Z,4.15
2017-04-22T10:05:47.915Z,4.18
2017-04-22T10:06:47.899Z,4.29
2017-04-22T10:07:47.883Z,4.24
2017-04-22T10:08:47.868Z,4.35
2017-04-22T10:09:47.888Z,4.29
2017-04-22T10:10:47.835Z,4.38
2017-04-22T10:11:47.824Z,4.24
2017-04-22T10:12:47.815Z,4.3
2017-04-22T10:13:47.796Z,4.32
2017-04-22T10:14:47.787Z,4.3
2017-04-22T10:15:47.142Z,4.32
2017-04-22T10:16:47.450Z,4.18
2017-04-22T10:17:47.734Z,4.3
2017-04-22T10:18:47.729Z,4.22
2017-04-22T10:19:47.711Z,4.2
2017-04-22T10:20:47.696Z,4.17
2017-04-22T10:21:47.679Z,4.3
2017-04-22T10:22:47.353Z,4.29
2017-04-22T10:23:47.340Z,4.3
2017-04-22T10:24:47.642Z,4.33
2017-04-22T10:25:47.625Z,4.36
2017-04-22T10:26:47.606Z,4.42
2017-04-22T10:27:47.595Z,4.42
2017-04-22T10:28:47.581Z,4.44
2017-04-22T10:29:47.569Z,4.5
2017-04-22T10:30:47.553Z,4.56
2017-04-22T10:31:47.537Z,4.48
2017-04-22T10:32:47.524Z,4.56
2017-04-22T10:33:47.777Z,4.58
2017-04-22T10:34:47.494Z,4.61
2017-04-22T10:35:47.479Z,4.75
2017-04-22T10:36:47.469Z,4.79
2017-04-22T10:37:47.459Z,4.84
2017-04-22T10:38:47.444Z,5
2017-04-22T10:39:47.427Z,5.03
2017-04-22T10:40:47.410Z,5.13
2017-04-22T10:41:47.403Z,5.13
2017-04-22T10:42:46.761Z,5.18
2017-04-22T10:43:47.375Z,5.23
2017-04-22T10:44:47.393Z,5.23
2017-04-22T10:45:47.030Z,5.39
2017-04-22T10:46:47.336Z,5.44
2017-04-22T10:47:47.320Z,5.57
2017-04-22T10:48:47.309Z,5.6
2017-04-22T10:49:47.296Z,5.78
2017-04-22T10:50:47.284Z,5.85
2017-04-22T10:51:47.266Z,5.95
2017-04-22T10:52:47.254Z,6.02
2017-04-22T10:53:47.242Z,6.06
2017-04-22T10:54:47.230Z,6.09
2017-04-22T10:55:46.903Z,6.17
2017-04-22T10:56:47.199Z,6.09
2017-04-22T10:57:47.190Z,6.15
2017-04-22T10:58:47.201Z,6.33
2017-04-22T10:59:47.191Z,6.39
2017-04-22T11:00:47.171Z,6.47
2017-04-22T11:01:46.898Z,6.54
2017-04-22T11:02:47.197Z,6.6
2017-04-22T11:03:46.867Z,6.7
2017-04-22T11:04:47.204Z,6.73
2017-04-22T11:05:47.195Z,6.82
2017-04-22T11:06:47.188Z,6.75
2017-04-22T11:07:47.210Z,6.67
2017-04-22T11:08:46.883Z,6.64
2017-04-22T11:09:47.186Z,6.62
2017-04-22T11:10:46.900Z,6.62
2017-04-22T11:11:46.882Z,6.8
2017-04-22T11:12:47.189Z,6.91
2017-04-22T11:13:46.896Z,7.01
2017-04-22T11:14:46.884Z,7.04
2017-04-22T11:15:47.196Z,7.12
2017-04-22T11:16:47.213Z,7.11
2017-04-22T11:17:46.895Z,7.05
2017-04-22T11:18:46.874Z,7.03
2017-04-22T11:19:47.218Z,7.11
2017-04-22T11:20:47.203Z,7.18
2017-04-22T11:21:47.194Z,7.27
2017-04-22T11:22:47.220Z,7.41
2017-04-22T11:23:47.207Z,7.45
2017-04-22T11:24:46.880Z,7.55
2017-04-22T11:25:47.222Z,7.48
2017-04-22T11:26:47.208Z,7.45
2017-04-22T11:27:47.196Z,7.3
2017-04-22T11:28:47.222Z,7.4
2017-04-22T11:29:47.213Z,7.41
2017-04-22T11:30:47.196Z,7.36
2017-04-22T11:31:47.228Z,7.33
2017-04-22T11:32:47.216Z,7.29
2017-04-22T11:33:47.209Z,7.18
2017-04-22T11:34:47.230Z,7.15
2017-04-22T11:35:47.221Z,7.08
2017-04-22T11:36:46.573Z,6.9
2017-04-22T11:37:47.233Z,6.97
2017-04-22T11:38:47.221Z,6.91
2017-04-22T11:39:47.212Z,6.95
2017-04-22T11:40:47.233Z,6.98
2017-04-22T11:41:46.911Z,7.05
2017-04-22T11:42:47.209Z,7.13
2017-04-22T11:43:47.234Z,7.33
2017-04-22T11:44:47.228Z,7.45
2017-04-22T11:45:46.900Z,7.47
2017-04-22T11:46:46.931Z,7.61
2017-04-22T11:47:47.273Z,7.54
2017-04-22T11:48:46.916Z,7.58
2017-04-22T11:49:46.925Z,7.85
2017-04-22T11:50:47.232Z,8.04
2017-04-22T11:51:47.222Z,8.09
2017-04-22T11:52:47.215Z,8.21
2017-04-22T11:53:47.204Z,8.06
2017-04-22T11:54:46.875Z,7.85
2017-04-22T11:55:46.867Z,7.63
2017-04-22T11:56:47.165Z,7.49
2017-04-22T11:57:47.160Z,7.39
2017-04-22T11:58:47.148Z,7.4
2017-04-22T11:59:46.504Z,7.22
2017-04-22T12:00:47.145Z,7.21
2017-04-22T12:01:46.798Z,7.15
2017-04-22T12:02:46.825Z,7.03
2017-04-22T12:03:46.776Z,7.04
2017-04-22T12:04:47.081Z,7.15
2017-04-22T12:05:47.070Z,7.12
2017-04-22T12:06:46.806Z,7.26
2017-04-22T12:07:47.056Z,7.34
2017-04-22T12:08:47.036Z,7.34
2017-04-22T12:09:47.027Z,7.37
2017-04-22T12:10:46.383Z,7.39
2017-04-22T12:11:46.686Z,7.39
2017-04-22T12:12:46.675Z,7.36
2017-04-22T12:13:46.664Z,7.34
2017-04-22T12:14:46.969Z,7.21
2017-04-22T12:15:46.638Z,7.11
2017-04-22T12:16:46.947Z,7.05
2017-04-22T12:17:46.933Z,7.01
2017-04-22T12:18:46.925Z,6.88
2017-04-22T12:19:46.595Z,6.85
2017-04-22T12:20:46.900Z,6.79
2017-04-22T12:21:46.925Z,6.8
2017-04-22T12:22:46.877Z,6.7
2017-04-22T12:23:46.861Z,6.62
2017-04-22T12:24:46.855Z,6.57
2017-04-22T12:25:46.525Z,6.52
2017-04-22T12:26:46.827Z,6.54
2017-04-22T12:27:46.824Z,6.57
2017-04-22T12:28:46.824Z,6.72
2017-04-22T12:29:46.477Z,6.67
2017-04-22T12:30:46.781Z,6.67
2017-04-22T12:31:46.771Z,6.85
2017-04-22T12:32:46.759Z,6.94
2017-04-22T12:33:46.755Z,7.04
2017-04-22T12:34:46.735Z,7.18
2017-04-22T12:35:46.722Z,7.26
2017-04-22T12:36:46.082Z,7.49
2017-04-22T12:37:46.701Z,7.39
2017-04-22T12:38:46.691Z,7.47
2017-04-22T12:39:46.364Z,7.55
2017-04-22T12:40:46.348Z,7.54
2017-04-22T12:41:46.652Z,7.37
2017-04-22T12:42:46.644Z,7.3
2017-04-22T12:43:46.315Z,7.23
2017-04-22T12:44:46.618Z,7.18
2017-04-22T12:45:46.601Z,7.12
2017-04-22T12:46:46.595Z,7.15
2017-04-22T12:47:46.589Z,7.13
2017-04-22T12:48:46.646Z,7.29
2017-04-22T12:49:46.556Z,7.34
2017-04-22T12:50:46.549Z,7.29
2017-04-22T12:51:46.536Z,7.37
2017-04-22T12:52:46.526Z,7.52
2017-04-22T12:53:46.516Z,7.77
2017-04-22T12:54:46.505Z,8.09
2017-04-22T12:55:46.179Z,8.21
2017-04-22T12:56:46.484Z,8.28
2017-04-22T12:57:46.475Z,8.36
2017-04-22T12:58:46.462Z,8.32
2017-04-22T12:59:46.446Z,8.31
2017-04-22T13:00:46.437Z,8.17
2017-04-22T13:01:46.424Z,8.28
2017-04-22T13:02:46.104Z,8.11
2017-04-22T13:03:46.091Z,7.99
2017-04-22T13:04:46.481Z,7.89
2017-04-22T13:05:46.380Z,7.78
2017-04-22T13:06:46.371Z,7.78
2017-04-22T13:07:46.360Z,7.61
2017-04-22T13:08:46.362Z,7.59
2017-04-22T13:09:46.338Z,7.58
2017-04-22T13:10:46.330Z,7.64
2017-04-22T13:11:46.316Z,7.71
2017-04-22T13:12:46.337Z,7.8
2017-04-22T13:13:46.299Z,7.95
2017-04-22T13:14:45.969Z,8.01
2017-04-22T13:15:46.274Z,8.07
2017-04-22T13:16:46.261Z,8.1
2017-04-22T13:17:46.255Z,7.96
2017-04-22T13:18:45.929Z,7.95
2017-04-22T13:19:46.230Z,7.82
2017-04-22T13:20:46.217Z,7.77
2017-04-22T13:21:46.205Z,7.7